sensor_id;sensor_type;location;lat;lon;timestamp;P1;durP1;ratioP1;P2;durP2;ratioP2
10823;SDS011;39116;59.332;18.034;2024-02-23T00:01:13;32.55;;;17.15;;
10823;SDS011;39116;59.332;18.034;2024-02-23T00:03:35;27.65;;;16.95;;
10823;SDS011;39116;59.332;18.034;2024-02-23T00:05:57;29.05;;;16.95;;
10823;SDS011;39116;59.332;18.034;2024-02-23T00:08:18;29.42;;;17.75;;
10823;SDS011;39116;59.332;18.034;2024-02-23T00:10:40;28.73;;;18.30;;
10823;SDS011;39116;59.332;18.034;2024-02-23T00:13:02;27.08;;;16.20;;
10823;SDS011;39116;59.332;18.034;2024-02-23T00:15:23;27.50;;;16.98;;
10823;SDS011;39116;59.332;18.034;2024-02-23T00:17:46;28.80;;;17.95;;
10823;SDS011;39116;59.332;18.034;2024-02-23T00:20:08;29.88;;;19.02;;
10823;SDS011;39116;59.332;18.034;2024-02-23T00:22:32;32.28;;;18.27;;
10823;SDS011;39116;59.332;18.034;2024-02-23T00:24:54;31.20;;;18.63;;
10823;SDS011;39116;59.332;18.034;2024-02-23T00:27:15;32.45;;;19.20;;
10823;SDS011;39116;59.332;18.034;2024-02-23T00:29:37;30.23;;;18.30;;
10823;SDS011;39116;59.332;18.034;2024-02-23T00:31:59;35.10;;;19.42;;
10823;SDS011;39116;59.332;18.034;2024-02-23T00:34:22;32.22;;;20.13;;
10823;SDS011;39116;59.332;18.034;2024-02-23T00:36:44;30.52;;;19.63;;
10823;SDS011;39116;59.332;18.034;2024-02-23T00:39:06;36.78;;;20.45;;
10823;SDS011;39116;59.332;18.034;2024-02-23T00:41:28;33.13;;;20.33;;
10823;SDS011;39116;59.332;18.034;2024-02-23T00:43:49;31.60;;;19.73;;
10823;SDS011;39116;59.332;18.034;2024-02-23T00:46:11;33.53;;;19.73;;
10823;SDS011;39116;59.332;18.034;2024-02-23T00:48:34;36.22;;;20.73;;
10823;SDS011;39116;59.332;18.034;2024-02-23T00:50:57;35.85;;;19.67;;
10823;SDS011;39116;59.332;18.034;2024-02-23T00:53:19;35.72;;;20.55;;
10823;SDS011;39116;59.332;18.034;2024-02-23T00:55:42;35.22;;;20.55;;
10823;SDS011;39116;59.332;18.034;2024-02-23T00:58:03;37.63;;;21.52;;
10823;SDS011;39116;59.332;18.034;2024-02-23T01:00:25;36.88;;;20.67;;
10823;SDS011;39116;59.332;18.034;2024-02-23T01:02:47;39.92;;;21.98;;
10823;SDS011;39116;59.332;18.034;2024-02-23T01:05:09;39.35;;;21.98;;
10823;SDS011;39116;59.332;18.034;2024-02-23T01:07:32;41.78;;;20.98;;
10823;SDS011;39116;59.332;18.034;2024-02-23T01:09:54;41.17;;;21.75;;
10823;SDS011;39116;59.332;18.034;2024-02-23T01:12:15;42.97;;;21.83;;
10823;SDS011;39116;59.332;18.034;2024-02-23T01:14:37;41.50;;;22.73;;
10823;SDS011;39116;59.332;18.034;2024-02-23T01:16:59;38.42;;;21.27;;
10823;SDS011;39116;59.332;18.034;2024-02-23T01:19:20;34.35;;;20.38;;
10823;SDS011;39116;59.332;18.034;2024-02-23T01:21:42;36.85;;;20.70;;
10823;SDS011;39116;59.332;18.034;2024-02-23T01:24:06;33.45;;;19.67;;
10823;SDS011;39116;59.332;18.034;2024-02-23T01:26:27;32.30;;;19.42;;
10823;SDS011;39116;59.332;18.034;2024-02-23T01:28:49;29.65;;;17.75;;
10823;SDS011;39116;59.332;18.034;2024-02-23T01:31:11;31.10;;;19.23;;
10823;SDS011;39116;59.332;18.034;2024-02-23T01:33:33;30.75;;;18.58;;
10823;SDS011;39116;59.332;18.034;2024-02-23T01:35:56;30.63;;;18.90;;
10823;SDS011;39116;59.332;18.034;2024-02-23T01:38:18;33.25;;;19.33;;
10823;SDS011;39116;59.332;18.034;2024-02-23T01:40:42;30.95;;;18.42;;
10823;SDS011;39116;59.332;18.034;2024-02-23T01:43:04;28.92;;;17.98;;
10823;SDS011;39116;59.332;18.034;2024-02-23T01:45:26;30.10;;;17.85;;
10823;SDS011;39116;59.332;18.034;2024-02-23T01:47:48;25.48;;;18.02;;
10823;SDS011;39116;59.332;18.034;2024-02-23T01:50:09;27.80;;;17.63;;
10823;SDS011;39116;59.332;18.034;2024-02-23T01:52:32;31.00;;;18.17;;
10823;SDS011;39116;59.332;18.034;2024-02-23T01:54:54;30.55;;;18.20;;
10823;SDS011;39116;59.332;18.034;2024-02-23T01:57:18;30.10;;;18.77;;
10823;SDS011;39116;59.332;18.034;2024-02-23T01:59:39;30.20;;;18.55;;
10823;SDS011;39116;59.332;18.034;2024-02-23T02:02:20;32.70;;;19.95;;
10823;SDS011;39116;59.332;18.034;2024-02-23T02:04:41;31.73;;;19.90;;
10823;SDS011;39116;59.332;18.034;2024-02-23T02:07:03;32.90;;;20.23;;
10823;SDS011;39116;59.332;18.034;2024-02-23T02:09:25;31.48;;;19.85;;
10823;SDS011;39116;59.332;18.034;2024-02-23T02:11:47;32.72;;;20.35;;
10823;SDS011;39116;59.332;18.034;2024-02-23T02:14:11;33.60;;;20.38;;
10823;SDS011;39116;59.332;18.034;2024-02-23T02:16:33;34.47;;;21.40;;
10823;SDS011;39116;59.332;18.034;2024-02-23T02:18:54;31.65;;;20.45;;
10823;SDS011;39116;59.332;18.034;2024-02-23T02:21:16;36.78;;;21.50;;
10823;SDS011;39116;59.332;18.034;2024-02-23T02:23:38;33.05;;;20.08;;
10823;SDS011;39116;59.332;18.034;2024-02-23T02:26:00;33.83;;;20.38;;
10823;SDS011;39116;59.332;18.034;2024-02-23T02:28:22;33.30;;;20.25;;
10823;SDS011;39116;59.332;18.034;2024-02-23T02:30:45;29.02;;;19.70;;
10823;SDS011;39116;59.332;18.034;2024-02-23T02:33:07;28.15;;;19.58;;
10823;SDS011;39116;59.332;18.034;2024-02-23T02:35:29;32.70;;;19.25;;
10823;SDS011;39116;59.332;18.034;2024-02-23T02:37:50;30.05;;;18.27;;
10823;SDS011;39116;59.332;18.034;2024-02-23T02:40:12;31.42;;;18.58;;
10823;SDS011;39116;59.332;18.034;2024-02-23T02:42:34;28.13;;;18.20;;
10823;SDS011;39116;59.332;18.034;2024-02-23T02:44:56;25.90;;;18.13;;
10823;SDS011;39116;59.332;18.034;2024-02-23T02:47:19;28.67;;;20.10;;
10823;SDS011;39116;59.332;18.034;2024-02-23T02:49:40;25.23;;;16.85;;
10823;SDS011;39116;59.332;18.034;2024-02-23T02:52:02;28.75;;;17.70;;
10823;SDS011;39116;59.332;18.034;2024-02-23T02:54:24;27.80;;;17.25;;
10823;SDS011;39116;59.332;18.034;2024-02-23T02:56:47;27.38;;;17.90;;
10823;SDS011;39116;59.332;18.034;2024-02-23T02:59:10;30.25;;;19.40;;
10823;SDS011;39116;59.332;18.034;2024-02-23T03:01:32;29.98;;;19.70;;
10823;SDS011;39116;59.332;18.034;2024-02-23T03:03:55;31.27;;;19.75;;
10823;SDS011;39116;59.332;18.034;2024-02-23T03:06:16;32.75;;;19.75;;
10823;SDS011;39116;59.332;18.034;2024-02-23T03:08:38;32.97;;;19.52;;
10823;SDS011;39116;59.332;18.034;2024-02-23T03:11:02;28.08;;;18.40;;
10823;SDS011;39116;59.332;18.034;2024-02-23T03:13:24;28.52;;;18.10;;
10823;SDS011;39116;59.332;18.034;2024-02-23T03:15:46;25.85;;;16.88;;
10823;SDS011;39116;59.332;18.034;2024-02-23T03:18:07;23.13;;;15.95;;
10823;SDS011;39116;59.332;18.034;2024-02-23T03:20:31;24.02;;;16.70;;
10823;SDS011;39116;59.332;18.034;2024-02-23T03:22:53;25.63;;;16.55;;
10823;SDS011;39116;59.332;18.034;2024-02-23T03:25:15;22.75;;;15.38;;
10823;SDS011;39116;59.332;18.034;2024-02-23T03:27:36;20.10;;;14.32;;
10823;SDS011;39116;59.332;18.034;2024-02-23T03:29:58;20.80;;;14.38;;
10823;SDS011;39116;59.332;18.034;2024-02-23T03:32:19;20.02;;;13.95;;
10823;SDS011;39116;59.332;18.034;2024-02-23T03:34:41;20.48;;;13.32;;
10823;SDS011;39116;59.332;18.034;2024-02-23T03:37:05;21.45;;;14.18;;
10823;SDS011;39116;59.332;18.034;2024-02-23T03:39:26;20.30;;;13.15;;
10823;SDS011;39116;59.332;18.034;2024-02-23T03:41:48;19.92;;;14.20;;
10823;SDS011;39116;59.332;18.034;2024-02-23T03:44:10;19.95;;;13.25;;
10823;SDS011;39116;59.332;18.034;2024-02-23T03:46:32;25.65;;;15.32;;
10823;SDS011;39116;59.332;18.034;2024-02-23T03:48:54;25.90;;;16.02;;
10823;SDS011;39116;59.332;18.034;2024-02-23T03:51:16;24.90;;;15.88;;
10823;SDS011;39116;59.332;18.034;2024-02-23T03:53:39;24.02;;;16.48;;
10823;SDS011;39116;59.332;18.034;2024-02-23T03:56:01;27.75;;;18.60;;
10823;SDS011;39116;59.332;18.034;2024-02-23T03:58:23;26.88;;;17.50;;
10823;SDS011;39116;59.332;18.034;2024-02-23T04:00:44;29.67;;;18.75;;
10823;SDS011;39116;59.332;18.034;2024-02-23T04:03:06;31.80;;;20.38;;
10823;SDS011;39116;59.332;18.034;2024-02-23T04:05:29;36.38;;;21.33;;
10823;SDS011;39116;59.332;18.034;2024-02-23T04:07:50;38.70;;;20.88;;
10823;SDS011;39116;59.332;18.034;2024-02-23T04:10:13;36.58;;;21.92;;
10823;SDS011;39116;59.332;18.034;2024-02-23T04:12:36;34.88;;;20.40;;
10823;SDS011;39116;59.332;18.034;2024-02-23T04:14:58;32.05;;;19.45;;
10823;SDS011;39116;59.332;18.034;2024-02-23T04:17:19;31.75;;;19.80;;
10823;SDS011;39116;59.332;18.034;2024-02-23T04:19:41;30.80;;;18.20;;
10823;SDS011;39116;59.332;18.034;2024-02-23T04:22:03;27.23;;;17.48;;
10823;SDS011;39116;59.332;18.034;2024-02-23T04:24:24;25.45;;;15.35;;
10823;SDS011;39116;59.332;18.034;2024-02-23T04:26:48;26.75;;;16.10;;
10823;SDS011;39116;59.332;18.034;2024-02-23T04:29:09;27.67;;;16.60;;
10823;SDS011;39116;59.332;18.034;2024-02-23T04:31:31;28.88;;;17.17;;
10823;SDS011;39116;59.332;18.034;2024-02-23T04:33:53;36.22;;;19.33;;
10823;SDS011;39116;59.332;18.034;2024-02-23T04:36:14;28.38;;;17.55;;
10823;SDS011;39116;59.332;18.034;2024-02-23T04:38:36;31.40;;;18.30;;
10823;SDS011;39116;59.332;18.034;2024-02-23T04:40:58;27.38;;;18.23;;
10823;SDS011;39116;59.332;18.034;2024-02-23T04:43:21;27.77;;;16.95;;
10823;SDS011;39116;59.332;18.034;2024-02-23T04:45:43;27.25;;;16.98;;
10823;SDS011;39116;59.332;18.034;2024-02-23T04:48:05;22.48;;;14.48;;
10823;SDS011;39116;59.332;18.034;2024-02-23T04:50:27;20.73;;;13.60;;
10823;SDS011;39116;59.332;18.034;2024-02-23T04:52:48;27.88;;;14.35;;
10823;SDS011;39116;59.332;18.034;2024-02-23T04:55:11;16.77;;;11.38;;
10823;SDS011;39116;59.332;18.034;2024-02-23T04:57:33;19.45;;;11.85;;
10823;SDS011;39116;59.332;18.034;2024-02-23T04:59:56;13.27;;;9.57;;
10823;SDS011;39116;59.332;18.034;2024-02-23T05:02:17;13.30;;;9.07;;
10823;SDS011;39116;59.332;18.034;2024-02-23T05:04:39;14.82;;;10.68;;
10823;SDS011;39116;59.332;18.034;2024-02-23T05:07:01;16.42;;;10.52;;
10823;SDS011;39116;59.332;18.034;2024-02-23T05:09:22;15.57;;;11.10;;
10823;SDS011;39116;59.332;18.034;2024-02-23T05:11:44;16.00;;;10.57;;
10823;SDS011;39116;59.332;18.034;2024-02-23T05:14:07;15.55;;;10.45;;
10823;SDS011;39116;59.332;18.034;2024-02-23T05:16:30;15.70;;;11.07;;
10823;SDS011;39116;59.332;18.034;2024-02-23T05:18:52;17.90;;;11.38;;
10823;SDS011;39116;59.332;18.034;2024-02-23T05:21:14;19.25;;;11.77;;
10823;SDS011;39116;59.332;18.034;2024-02-23T05:23:36;21.05;;;13.43;;
10823;SDS011;39116;59.332;18.034;2024-02-23T05:25:57;19.05;;;13.02;;
10823;SDS011;39116;59.332;18.034;2024-02-23T05:28:19;19.98;;;13.13;;
10823;SDS011;39116;59.332;18.034;2024-02-23T05:30:41;24.33;;;14.30;;
10823;SDS011;39116;59.332;18.034;2024-02-23T05:33:04;22.60;;;14.13;;
10823;SDS011;39116;59.332;18.034;2024-02-23T05:35:26;21.77;;;14.10;;
10823;SDS011;39116;59.332;18.034;2024-02-23T05:37:47;26.50;;;14.45;;
10823;SDS011;39116;59.332;18.034;2024-02-23T05:40:10;23.27;;;13.73;;
10823;SDS011;39116;59.332;18.034;2024-02-23T05:42:32;23.23;;;13.95;;
10823;SDS011;39116;59.332;18.034;2024-02-23T05:44:53;24.38;;;14.88;;
10823;SDS011;39116;59.332;18.034;2024-02-23T05:47:15;26.90;;;13.75;;
10823;SDS011;39116;59.332;18.034;2024-02-23T05:49:39;28.15;;;15.25;;
10823;SDS011;39116;59.332;18.034;2024-02-23T05:52:00;31.27;;;16.13;;
10823;SDS011;39116;59.332;18.034;2024-02-23T05:54:22;27.23;;;16.25;;
10823;SDS011;39116;59.332;18.034;2024-02-23T05:56:44;25.02;;;15.65;;
10823;SDS011;39116;59.332;18.034;2024-02-23T05:59:07;24.60;;;13.88;;
10823;SDS011;39116;59.332;18.034;2024-02-23T06:01:29;22.73;;;12.75;;
10823;SDS011;39116;59.332;18.034;2024-02-23T06:03:50;27.60;;;14.05;;
10823;SDS011;39116;59.332;18.034;2024-02-23T06:06:14;24.20;;;14.43;;
10823;SDS011;39116;59.332;18.034;2024-02-23T06:08:36;26.25;;;14.68;;
10823;SDS011;39116;59.332;18.034;2024-02-23T06:10:58;25.83;;;15.23;;
10823;SDS011;39116;59.332;18.034;2024-02-23T06:13:20;28.98;;;16.10;;
10823;SDS011;39116;59.332;18.034;2024-02-23T06:15:42;29.05;;;14.45;;
10823;SDS011;39116;59.332;18.034;2024-02-23T06:18:04;25.58;;;14.98;;
10823;SDS011;39116;59.332;18.034;2024-02-23T06:20:26;24.92;;;15.00;;
10823;SDS011;39116;59.332;18.034;2024-02-23T06:22:49;23.83;;;13.77;;
10823;SDS011;39116;59.332;18.034;2024-02-23T06:25:10;24.42;;;13.60;;
10823;SDS011;39116;59.332;18.034;2024-02-23T06:27:32;25.67;;;14.90;;
10823;SDS011;39116;59.332;18.034;2024-02-23T06:29:54;27.98;;;15.63;;
10823;SDS011;39116;59.332;18.034;2024-02-23T06:32:16;37.55;;;19.58;;
10823;SDS011;39116;59.332;18.034;2024-02-23T06:34:38;37.28;;;20.42;;
10823;SDS011;39116;59.332;18.034;2024-02-23T06:37:00;33.45;;;19.30;;
10823;SDS011;39116;59.332;18.034;2024-02-23T06:39:23;32.70;;;17.83;;
10823;SDS011;39116;59.332;18.034;2024-02-23T06:41:45;25.55;;;15.80;;
10823;SDS011;39116;59.332;18.034;2024-02-23T06:44:06;27.20;;;16.17;;
10823;SDS011;39116;59.332;18.034;2024-02-23T06:46:28;32.10;;;17.55;;
10823;SDS011;39116;59.332;18.034;2024-02-23T06:48:50;28.08;;;16.55;;
10823;SDS011;39116;59.332;18.034;2024-02-23T06:51:11;25.60;;;15.43;;
10823;SDS011;39116;59.332;18.034;2024-02-23T06:53:33;34.28;;;16.95;;
10823;SDS011;39116;59.332;18.034;2024-02-23T06:55:56;30.80;;;17.45;;
10823;SDS011;39116;59.332;18.034;2024-02-23T06:58:19;32.22;;;15.88;;
10823;SDS011;39116;59.332;18.034;2024-02-23T07:00:40;29.67;;;14.85;;
10823;SDS011;39116;59.332;18.034;2024-02-23T07:03:02;14.45;;;6.70;;
10823;SDS011;39116;59.332;18.034;2024-02-23T07:05:24;0.00;;;0.00;;
10823;SDS011;39116;59.332;18.034;2024-02-23T07:07:45;15.10;;;4.57;;
10823;SDS011;39116;59.332;18.034;2024-02-23T07:10:07;0.28;;;0.28;;
10823;SDS011;39116;59.332;18.034;2024-02-23T07:12:30;1.27;;;1.25;;
10823;SDS011;39116;59.332;18.034;2024-02-23T07:14:52;0.08;;;0.08;;
10823;SDS011;39116;59.332;18.034;2024-02-23T07:17:16;0.00;;;0.00;;
10823;SDS011;39116;59.332;18.034;2024-02-23T07:19:38;0.22;;;0.22;;
10823;SDS011;39116;59.332;18.034;2024-02-23T07:21:59;0.00;;;0.00;;
10823;SDS011;39116;59.332;18.034;2024-02-23T07:24:22;0.10;;;0.10;;
10823;SDS011;39116;59.332;18.034;2024-02-23T07:26:44;0.00;;;0.00;;
10823;SDS011;39116;59.332;18.034;2024-02-23T07:29:07;0.00;;;0.00;;
10823;SDS011;39116;59.332;18.034;2024-02-23T07:31:28;0.00;;;0.00;;
10823;SDS011;39116;59.332;18.034;2024-02-23T07:33:50;0.00;;;0.00;;
10823;SDS011;39116;59.332;18.034;2024-02-23T07:36:13;0.00;;;0.00;;
10823;SDS011;39116;59.332;18.034;2024-02-23T07:38:35;0.00;;;0.00;;
10823;SDS011;39116;59.332;18.034;2024-02-23T07:40:56;0.03;;;0.03;;
10823;SDS011;39116;59.332;18.034;2024-02-23T07:43:18;0.00;;;0.00;;
10823;SDS011;39116;59.332;18.034;2024-02-23T07:45:41;0.03;;;0.03;;
10823;SDS011;39116;59.332;18.034;2024-02-23T07:48:04;0.00;;;0.00;;
10823;SDS011;39116;59.332;18.034;2024-02-23T07:50:26;0.00;;;0.00;;
10823;SDS011;39116;59.332;18.034;2024-02-23T07:52:47;0.00;;;0.00;;
10823;SDS011;39116;59.332;18.034;2024-02-23T07:55:09;0.00;;;0.00;;
10823;SDS011;39116;59.332;18.034;2024-02-23T07:57:30;0.00;;;0.00;;
10823;SDS011;39116;59.332;18.034;2024-02-23T07:59:53;0.40;;;0.40;;
10823;SDS011;39116;59.332;18.034;2024-02-23T08:02:16;0.00;;;0.00;;
10823;SDS011;39116;59.332;18.034;2024-02-23T08:04:37;0.65;;;0.65;;
10823;SDS011;39116;59.332;18.034;2024-02-23T08:06:59;0.00;;;0.00;;
10823;SDS011;39116;59.332;18.034;2024-02-23T08:09:21;0.00;;;0.00;;
10823;SDS011;39116;59.332;18.034;2024-02-23T08:11:44;0.00;;;0.00;;
10823;SDS011;39116;59.332;18.034;2024-02-23T08:14:06;0.15;;;0.15;;
10823;SDS011;39116;59.332;18.034;2024-02-23T08:16:28;0.20;;;0.20;;
10823;SDS011;39116;59.332;18.034;2024-02-23T08:18:51;0.00;;;0.00;;
10823;SDS011;39116;59.332;18.034;2024-02-23T08:21:13;0.17;;;0.17;;
10823;SDS011;39116;59.332;18.034;2024-02-23T08:23:35;0.00;;;0.00;;
10823;SDS011;39116;59.332;18.034;2024-02-23T08:25:57;0.10;;;0.10;;
10823;SDS011;39116;59.332;18.034;2024-02-23T08:28:20;0.00;;;0.00;;
10823;SDS011;39116;59.332;18.034;2024-02-23T08:30:42;0.00;;;0.00;;
10823;SDS011;39116;59.332;18.034;2024-02-23T08:33:04;0.00;;;0.00;;
10823;SDS011;39116;59.332;18.034;2024-02-23T08:35:30;0.47;;;0.47;;
10823;SDS011;39116;59.332;18.034;2024-02-23T08:37:53;0.00;;;0.00;;
10823;SDS011;39116;59.332;18.034;2024-02-23T08:40:14;0.10;;;0.10;;
10823;SDS011;39116;59.332;18.034;2024-02-23T08:42:36;0.00;;;0.00;;
10823;SDS011;39116;59.332;18.034;2024-02-23T08:44:58;0.00;;;0.00;;
10823;SDS011;39116;59.332;18.034;2024-02-23T08:47:20;0.15;;;0.15;;
10823;SDS011;39116;59.332;18.034;2024-02-23T08:49:41;0.10;;;0.10;;
10823;SDS011;39116;59.332;18.034;2024-02-23T08:52:04;0.00;;;0.00;;
10823;SDS011;39116;59.332;18.034;2024-02-23T08:54:26;0.00;;;0.00;;
10823;SDS011;39116;59.332;18.034;2024-02-23T08:56:48;0.00;;;0.00;;
10823;SDS011;39116;59.332;18.034;2024-02-23T08:59:09;0.00;;;0.00;;
10823;SDS011;39116;59.332;18.034;2024-02-23T09:01:31;0.00;;;0.00;;
10823;SDS011;39116;59.332;18.034;2024-02-23T09:03:53;0.10;;;0.10;;
10823;SDS011;39116;59.332;18.034;2024-02-23T09:06:14;0.00;;;0.00;;
10823;SDS011;39116;59.332;18.034;2024-02-23T09:08:37;0.73;;;0.52;;
10823;SDS011;39116;59.332;18.034;2024-02-23T09:11:01;0.00;;;0.00;;
10823;SDS011;39116;59.332;18.034;2024-02-23T09:13:23;0.00;;;0.00;;
10823;SDS011;39116;59.332;18.034;2024-02-23T09:15:44;0.00;;;0.00;;
10823;SDS011;39116;59.332;18.034;2024-02-23T09:18:06;0.75;;;0.75;;
10823;SDS011;39116;59.332;18.034;2024-02-23T09:20:28;0.00;;;0.00;;
10823;SDS011;39116;59.332;18.034;2024-02-23T09:22:49;0.00;;;0.00;;
10823;SDS011;39116;59.332;18.034;2024-02-23T09:25:13;0.00;;;0.00;;
10823;SDS011;39116;59.332;18.034;2024-02-23T09:27:34;0.00;;;0.00;;
10823;SDS011;39116;59.332;18.034;2024-02-23T09:30:03;0.00;;;0.00;;
10823;SDS011;39116;59.332;18.034;2024-02-23T09:32:26;0.00;;;0.00;;
10823;SDS011;39116;59.332;18.034;2024-02-23T09:34:48;0.00;;;0.00;;
10823;SDS011;39116;59.332;18.034;2024-02-23T09:37:09;0.00;;;0.00;;
10823;SDS011;39116;59.332;18.034;2024-02-23T09:39:31;0.03;;;0.03;;
10823;SDS011;39116;59.332;18.034;2024-02-23T09:41:54;0.00;;;0.00;;
10823;SDS011;39116;59.332;18.034;2024-02-23T09:44:17;0.00;;;0.00;;
10823;SDS011;39116;59.332;18.034;2024-02-23T09:46:42;0.00;;;0.00;;
10823;SDS011;39116;59.332;18.034;2024-02-23T09:49:05;0.40;;;0.40;;
10823;SDS011;39116;59.332;18.034;2024-02-23T09:51:28;0.10;;;0.10;;
10823;SDS011;39116;59.332;18.034;2024-02-23T09:53:50;0.00;;;0.00;;
10823;SDS011;39116;59.332;18.034;2024-02-23T09:56:12;0.10;;;0.10;;
10823;SDS011;39116;59.332;18.034;2024-02-23T09:58:39;0.30;;;0.30;;
10823;SDS011;39116;59.332;18.034;2024-02-23T10:01:01;0.00;;;0.00;;
10823;SDS011;39116;59.332;18.034;2024-02-23T10:03:23;0.00;;;0.00;;
10823;SDS011;39116;59.332;18.034;2024-02-23T10:05:47;0.00;;;0.00;;
10823;SDS011;39116;59.332;18.034;2024-02-23T10:08:09;0.00;;;0.00;;
10823;SDS011;39116;59.332;18.034;2024-02-23T10:10:33;0.00;;;0.00;;
10823;SDS011;39116;59.332;18.034;2024-02-23T10:12:55;0.00;;;0.00;;
10823;SDS011;39116;59.332;18.034;2024-02-23T10:15:18;0.00;;;0.00;;
10823;SDS011;39116;59.332;18.034;2024-02-23T10:17:40;0.70;;;0.70;;
10823;SDS011;39116;59.332;18.034;2024-02-23T10:20:02;0.00;;;0.00;;
10823;SDS011;39116;59.332;18.034;2024-02-23T10:22:24;0.00;;;0.00;;
10823;SDS011;39116;59.332;18.034;2024-02-23T10:24:46;0.32;;;0.32;;
10823;SDS011;39116;59.332;18.034;2024-02-23T10:27:08;0.00;;;0.00;;
10823;SDS011;39116;59.332;18.034;2024-02-23T10:29:29;0.00;;;0.00;;
10823;SDS011;39116;59.332;18.034;2024-02-23T10:31:52;0.00;;;0.00;;
10823;SDS011;39116;59.332;18.034;2024-02-23T10:34:18;0.00;;;0.00;;
10823;SDS011;39116;59.332;18.034;2024-02-23T10:36:40;0.00;;;0.00;;
10823;SDS011;39116;59.332;18.034;2024-02-23T10:39:02;0.00;;;0.00;;
10823;SDS011;39116;59.332;18.034;2024-02-23T10:41:25;0.00;;;0.00;;
10823;SDS011;39116;59.332;18.034;2024-02-23T10:43:47;0.00;;;0.00;;
10823;SDS011;39116;59.332;18.034;2024-02-23T10:46:10;0.00;;;0.00;;
10823;SDS011;39116;59.332;18.034;2024-02-23T10:48:34;0.00;;;0.00;;
10823;SDS011;39116;59.332;18.034;2024-02-23T10:50:57;0.00;;;0.00;;
10823;SDS011;39116;59.332;18.034;2024-02-23T10:53:19;0.10;;;0.10;;
10823;SDS011;39116;59.332;18.034;2024-02-23T10:55:41;0.00;;;0.00;;
10823;SDS011;39116;59.332;18.034;2024-02-23T10:58:04;0.10;;;0.10;;
10823;SDS011;39116;59.332;18.034;2024-02-23T11:00:31;0.90;;;0.90;;
10823;SDS011;39116;59.332;18.034;2024-02-23T11:02:53;0.00;;;0.00;;
10823;SDS011;39116;59.332;18.034;2024-02-23T11:05:17;0.00;;;0.00;;
10823;SDS011;39116;59.332;18.034;2024-02-23T11:07:39;0.00;;;0.00;;
10823;SDS011;39116;59.332;18.034;2024-02-23T11:10:01;0.00;;;0.00;;
10823;SDS011;39116;59.332;18.034;2024-02-23T11:12:26;0.10;;;0.10;;
10823;SDS011;39116;59.332;18.034;2024-02-23T11:14:48;0.00;;;0.00;;
10823;SDS011;39116;59.332;18.034;2024-02-23T11:17:17;0.00;;;0.00;;
10823;SDS011;39116;59.332;18.034;2024-02-23T11:19:39;0.00;;;0.00;;
10823;SDS011;39116;59.332;18.034;2024-02-23T11:22:02;0.00;;;0.00;;
10823;SDS011;39116;59.332;18.034;2024-02-23T11:24:25;0.00;;;0.00;;
10823;SDS011;39116;59.332;18.034;2024-02-23T11:26:49;0.00;;;0.00;;
10823;SDS011;39116;59.332;18.034;2024-02-23T11:29:11;0.00;;;0.00;;
10823;SDS011;39116;59.332;18.034;2024-02-23T11:31:33;0.00;;;0.00;;
10823;SDS011;39116;59.332;18.034;2024-02-23T11:33:55;1.15;;;1.15;;
10823;SDS011;39116;59.332;18.034;2024-02-23T11:36:23;0.10;;;0.10;;
10823;SDS011;39116;59.332;18.034;2024-02-23T11:38:48;0.00;;;0.00;;
10823;SDS011;39116;59.332;18.034;2024-02-23T11:41:11;0.00;;;0.00;;
10823;SDS011;39116;59.332;18.034;2024-02-23T11:43:33;0.00;;;0.00;;
10823;SDS011;39116;59.332;18.034;2024-02-23T11:45:56;0.00;;;0.00;;
10823;SDS011;39116;59.332;18.034;2024-02-23T11:48:17;0.00;;;0.00;;
10823;SDS011;39116;59.332;18.034;2024-02-23T11:50:39;0.00;;;0.00;;
10823;SDS011;39116;59.332;18.034;2024-02-23T11:53:01;0.00;;;0.00;;
10823;SDS011;39116;59.332;18.034;2024-02-23T11:55:25;0.00;;;0.00;;
10823;SDS011;39116;59.332;18.034;2024-02-23T11:57:47;0.00;;;0.00;;
10823;SDS011;39116;59.332;18.034;2024-02-23T12:00:09;0.00;;;0.00;;
10823;SDS011;39116;59.332;18.034;2024-02-23T12:02:31;0.10;;;0.10;;
10823;SDS011;39116;59.332;18.034;2024-02-23T12:04:53;0.03;;;0.03;;
10823;SDS011;39116;59.332;18.034;2024-02-23T12:07:14;0.05;;;0.05;;
10823;SDS011;39116;59.332;18.034;2024-02-23T12:09:37;0.00;;;0.00;;
10823;SDS011;39116;59.332;18.034;2024-02-23T12:12:02;0.00;;;0.00;;
10823;SDS011;39116;59.332;18.034;2024-02-23T12:14:24;0.10;;;0.10;;
10823;SDS011;39116;59.332;18.034;2024-02-23T12:16:46;0.00;;;0.00;;
10823;SDS011;39116;59.332;18.034;2024-02-23T12:19:08;0.00;;;0.00;;
10823;SDS011;39116;59.332;18.034;2024-02-23T12:21:29;0.10;;;0.10;;
10823;SDS011;39116;59.332;18.034;2024-02-23T12:23:51;0.05;;;0.05;;
10823;SDS011;39116;59.332;18.034;2024-02-23T12:26:13;0.00;;;0.00;;
10823;SDS011;39116;59.332;18.034;2024-02-23T12:28:36;3.00;;;2.05;;
10823;SDS011;39116;59.332;18.034;2024-02-23T12:30:59;0.00;;;0.00;;
10823;SDS011;39116;59.332;18.034;2024-02-23T12:33:20;0.00;;;0.00;;
10823;SDS011;39116;59.332;18.034;2024-02-23T12:35:42;0.00;;;0.00;;
10823;SDS011;39116;59.332;18.034;2024-02-23T12:38:04;0.05;;;0.05;;
10823;SDS011;39116;59.332;18.034;2024-02-23T12:40:25;0.10;;;0.10;;
10823;SDS011;39116;59.332;18.034;2024-02-23T12:42:47;0.05;;;0.05;;
10823;SDS011;39116;59.332;18.034;2024-02-23T12:45:11;0.00;;;0.00;;
10823;SDS011;39116;59.332;18.034;2024-02-23T12:47:33;0.00;;;0.00;;
10823;SDS011;39116;59.332;18.034;2024-02-23T12:49:54;0.10;;;0.10;;
10823;SDS011;39116;59.332;18.034;2024-02-23T12:52:16;0.00;;;0.00;;
10823;SDS011;39116;59.332;18.034;2024-02-23T12:54:38;0.00;;;0.00;;
10823;SDS011;39116;59.332;18.034;2024-02-23T12:56:59;0.10;;;0.10;;
10823;SDS011;39116;59.332;18.034;2024-02-23T12:59:21;6.68;;;0.88;;
10823;SDS011;39116;59.332;18.034;2024-02-23T13:01:44;0.05;;;0.05;;
10823;SDS011;39116;59.332;18.034;2024-02-23T13:04:06;0.00;;;0.00;;
10823;SDS011;39116;59.332;18.034;2024-02-23T13:06:29;0.00;;;0.00;;
10823;SDS011;39116;59.332;18.034;2024-02-23T13:08:51;0.00;;;0.00;;
10823;SDS011;39116;59.332;18.034;2024-02-23T13:11:13;0.10;;;0.10;;
10823;SDS011;39116;59.332;18.034;2024-02-23T13:13:35;0.10;;;0.10;;
10823;SDS011;39116;59.332;18.034;2024-02-23T13:15:56;0.00;;;0.00;;
10823;SDS011;39116;59.332;18.034;2024-02-23T13:18:19;0.10;;;0.10;;
10823;SDS011;39116;59.332;18.034;2024-02-23T13:20:42;1.30;;;1.30;;
10823;SDS011;39116;59.332;18.034;2024-02-23T13:23:04;0.00;;;0.00;;
10823;SDS011;39116;59.332;18.034;2024-02-23T13:25:27;0.00;;;0.00;;
10823;SDS011;39116;59.332;18.034;2024-02-23T13:27:49;0.00;;;0.00;;
10823;SDS011;39116;59.332;18.034;2024-02-23T13:30:11;0.00;;;0.00;;
10823;SDS011;39116;59.332;18.034;2024-02-23T13:32:33;0.00;;;0.00;;
10823;SDS011;39116;59.332;18.034;2024-02-23T13:34:56;0.00;;;0.00;;
10823;SDS011;39116;59.332;18.034;2024-02-23T13:37:17;0.10;;;0.10;;
10823;SDS011;39116;59.332;18.034;2024-02-23T13:39:39;0.00;;;0.00;;
10823;SDS011;39116;59.332;18.034;2024-02-23T13:42:01;0.00;;;0.00;;
10823;SDS011;39116;59.332;18.034;2024-02-23T13:44:25;0.10;;;0.10;;
10823;SDS011;39116;59.332;18.034;2024-02-23T13:46:47;0.00;;;0.00;;
10823;SDS011;39116;59.332;18.034;2024-02-23T13:49:08;8.82;;;2.00;;
10823;SDS011;39116;59.332;18.034;2024-02-23T13:51:33;8.13;;;1.77;;